Time;durP1;ratioP1;P1;durP2;ratioP2;P2;SDS_P1;SDS_P2;PMS_P1;PMS_P2;Temp;Humidity;BMP_temperature;BMP_pressure;BME280_temperature;BME280_humidity;BME280_pressure;Samples;Min_cycle;Max_cycle;Signal;HPM_P1;HPM_P2
2022/03/29 00:02:17;;;;;;;;;;;9.60;73.70;;;;;;5059755;28;19958;-78
2022/03/29 00:04:43;;;;;;;;;;;9.60;73.60;;;;;;5057443;28;19984;-78
2022/03/29 00:07:08;;;;;;;;;;;9.60;73.60;;;;;;5059526;28;19913;-78
2022/03/29 00:09:34;;;;;;;;;;;9.50;73.90;;;;;;5057714;28;19917;-78
2022/03/29 00:11:59;;;;;;;;;;;9.60;73.60;;;;;;5055878;28;19924;-78
2022/03/29 00:14:25;;;;;;;;;;;9.60;73.60;;;;;;5056690;28;19923;-78
2022/03/29 00:16:50;;;;;;;;;;;9.50;73.70;;;;;;5056861;28;19913;-79
2022/03/29 00:19:16;;;;;;;;;;;9.40;74.00;;;;;;5057261;28;20060;-78
2022/03/29 00:21:41;;;;;;;;;;;9.50;74.00;;;;;;5059303;28;20022;-79
2022/03/29 00:24:07;;;;;;;;;;;9.50;74.10;;;;;;5059712;28;19923;-78
2022/03/29 00:26:32;;;;;;;;;;;9.30;74.20;;;;;;5055983;28;19912;-79
2022/03/29 00:28:58;;;;;;;;;;;9.30;74.80;;;;;;5058455;28;20004;-78
2022/03/29 00:31:24;;;;;;;;;;;9.30;74.40;;;;;;5056014;28;19921;-78
2022/03/29 00:33:49;;;;;;;;;;;9.20;75.00;;;;;;5058899;28;19920;-78
2022/03/29 00:36:16;;;;;;;;;;;9.20;75.00;;;;;;5055748;28;19927;-78
2022/03/29 00:38:41;;;;;;;;;;;9.20;75.20;;;;;;5058419;28;19920;-79
2022/03/29 00:41:07;;;;;;;;;;;9.30;75.00;;;;;;5059400;28;19920;-78
2022/03/29 00:43:32;;;;;;;;;;;9.10;75.10;;;;;;5058565;28;19916;-79
2022/03/29 00:45:58;;;;;;;;;;;9.20;75.40;;;;;;5059049;28;20389;-78
2022/03/29 00:48:23;;;;;;;;;;;9.10;75.30;;;;;;5057902;28;19996;-78
2022/03/29 00:50:49;;;;;;;;;;;9.10;75.20;;;;;;5057440;28;19917;-78
2022/03/29 00:53:16;;;;;;;;;;;9.10;75.40;;;;;;5059186;28;19913;-78
2022/03/29 00:55:42;;;;;;;;;;;9.00;75.60;;;;;;5060117;28;19974;-78
2022/03/29 00:58:09;;;;;;;;;;;9.00;75.90;;;;;;5058206;28;19968;-78
2022/03/29 01:00:35;;;;;;;;;;;9.00;76.10;;;;;;5058730;28;20272;-78
2022/03/29 01:03:04;;;;;;;;;;;9.00;76.30;;;;;;5058253;28;19919;-79
2022/03/29 01:05:30;;;;;;;;;;;8.90;76.00;;;;;;5059793;28;19992;-78
2022/03/29 01:07:56;;;;;;;;;;;8.90;76.10;;;;;;5059886;28;19912;-78
2022/03/29 01:10:22;;;;;;;;;;;8.90;76.10;;;;;;5058937;28;19920;-78
2022/03/29 01:12:48;;;;;;;;;;;9.00;76.10;;;;;;5057623;28;19913;-78
2022/03/29 01:15:13;;;;;;;;;;;9.00;76.00;;;;;;5057368;28;19956;-78
2022/03/29 01:17:40;;;;;;;;;;;9.00;75.90;;;;;;5057641;28;19916;-78
2022/03/29 01:20:07;;;;;;;;;;;9.00;75.90;;;;;;5056133;28;19916;-78
2022/03/29 01:22:33;;;;;;;;;;;8.90;76.20;;;;;;5058504;28;19938;-78
2022/03/29 01:24:58;;;;;;;;;;;8.80;76.20;;;;;;5055948;28;19975;-78
2022/03/29 01:27:24;;;;;;;;;;;8.90;76.50;;;;;;5055925;28;19920;-78
2022/03/29 01:29:52;;;;;;;;;;;8.80;76.50;;;;;;5056706;28;20003;-78
2022/03/29 01:32:18;;;;;;;;;;;8.90;76.50;;;;;;5056953;28;19912;-78
2022/03/29 01:34:43;;;;;;;;;;;8.90;76.60;;;;;;5052613;28;19913;-78
2022/03/29 01:37:09;;;;;;;;;;;8.90;76.40;;;;;;5058631;28;19913;-78
2022/03/29 01:39:35;;;;;;;;;;;8.80;76.60;;;;;;5059140;28;19972;-78
2022/03/29 01:42:01;;;;;;;;;;;8.80;76.50;;;;;;5057167;28;19937;-78
2022/03/29 01:44:27;;;;;;;;;;;8.80;76.50;;;;;;5059382;28;19917;-78
2022/03/29 01:46:53;;;;;;;;;;;8.90;76.60;;;;;;5060316;28;19959;-78
2022/03/29 01:49:19;;;;;;;;;;;8.90;76.90;;;;;;5059993;28;19928;-78
2022/03/29 01:51:45;;;;;;;;;;;8.80;76.50;;;;;;5061207;28;19988;-78
2022/03/29 01:54:10;;;;;;;;;;;8.70;77.10;;;;;;5060354;28;19925;-79
2022/03/29 01:56:36;;;;;;;;;;;8.70;77.20;;;;;;5060062;28;20334;-78
2022/03/29 01:59:07;;;;;;;;;;;8.60;77.50;;;;;;5059916;28;20401;-78
2022/03/29 02:01:39;;;;;;;;;;;8.60;77.40;;;;;;5062562;28;19924;-79
2022/03/29 02:04:04;;;;;;;;;;;8.70;77.50;;;;;;5061516;28;19917;-78
2022/03/29 02:06:30;;;;;;;;;;;8.60;77.40;;;;;;5061962;28;19912;-78
2022/03/29 02:08:59;;;;;;;;;;;8.70;77.70;;;;;;5060272;28;20736;-78
2022/03/29 02:11:24;;;;;;;;;;;8.60;77.70;;;;;;5057828;28;19921;-79
2022/03/29 02:13:50;;;;;;;;;;;8.60;77.80;;;;;;5065233;28;19912;-78
2022/03/29 02:16:15;;;;;;;;;;;8.50;78.20;;;;;;5063590;28;19927;-78
2022/03/29 02:18:41;;;;;;;;;;;8.40;78.70;;;;;;5062709;28;19978;-78
2022/03/29 02:21:06;;;;;;;;;;;8.50;78.80;;;;;;5065936;28;19917;-78
2022/03/29 02:23:32;;;;;;;;;;;8.50;78.80;;;;;;5066126;28;19901;-79
2022/03/29 02:25:57;;;;;;;;;;;8.40;79.00;;;;;;5065167;28;20349;-79
2022/03/29 02:28:23;;;;;;;;;;;8.40;79.20;;;;;;5064034;28;19917;-78
2022/03/29 02:30:48;;;;;;;;;;;8.40;79.20;;;;;;5062620;28;19942;-79
2022/03/29 02:33:15;;;;;;;;;;;8.40;79.30;;;;;;5064723;28;19985;-78
2022/03/29 02:35:41;;;;;;;;;;;8.30;79.50;;;;;;5062681;28;19917;-78
2022/03/29 02:38:07;;;;;;;;;;;8.40;79.40;;;;;;5062121;28;19927;-78
2022/03/29 02:40:33;;;;;;;;;;;8.40;79.50;;;;;;5060780;28;19913;-78
2022/03/29 02:42:58;;;;;;;;;;;8.30;79.70;;;;;;5062754;28;20104;-78
2022/03/29 02:45:25;;;;;;;;;;;8.20;80.10;;;;;;5058870;28;19921;-79
2022/03/29 02:47:52;;;;;;;;;;;8.20;80.40;;;;;;5063008;28;20373;-78
2022/03/29 02:50:17;;;;;;;;;;;8.20;80.50;;;;;;5060011;28;19928;-78
2022/03/29 02:52:46;;;;;;;;;;;8.20;80.50;;;;;;5061728;28;19916;-79
2022/03/29 02:55:12;;;;;;;;;;;8.20;80.80;;;;;;5057399;28;19923;-78
2022/03/29 02:57:37;;;;;;;;;;;8.20;80.40;;;;;;5057162;28;19996;-78
2022/03/29 03:00:05;;;;;;;;;;;8.30;80.60;;;;;;5059248;28;19917;-78
2022/03/29 03:02:32;;;;;;;;;;;8.40;80.10;;;;;;5053553;28;19913;-78
2022/03/29 03:04:57;;;;;;;;;;;8.30;80.30;;;;;;5059124;28;19925;-78
2022/03/29 03:07:23;;;;;;;;;;;8.30;80.50;;;;;;5061019;28;19913;-78
2022/03/29 03:09:48;;;;;;;;;;;8.20;80.40;;;;;;5059833;28;19947;-78
2022/03/29 03:12:13;;;;;;;;;;;8.20;80.60;;;;;;5059156;28;19917;-78
2022/03/29 03:14:39;;;;;;;;;;;8.10;80.80;;;;;;5060755;28;19913;-78
2022/03/29 03:17:04;;;;;;;;;;;8.20;80.80;;;;;;5060190;28;19912;-78
2022/03/29 03:19:30;;;;;;;;;;;8.10;81.00;;;;;;5059744;28;19913;-78
2022/03/29 03:21:55;;;;;;;;;;;8.10;81.00;;;;;;5060522;28;20239;-78
2022/03/29 03:24:21;;;;;;;;;;;8.10;81.30;;;;;;5057260;28;19936;-78
2022/03/29 03:26:46;;;;;;;;;;;8.00;81.30;;;;;;5058086;28;19928;-78
2022/03/29 03:29:12;;;;;;;;;;;8.10;81.20;;;;;;5059645;28;19924;-79
2022/03/29 03:31:37;;;;;;;;;;;8.00;81.50;;;;;;5057897;28;19913;-78
2022/03/29 03:34:03;;;;;;;;;;;8.00;81.60;;;;;;5058688;28;20361;-79
2022/03/29 03:36:28;;;;;;;;;;;7.90;81.70;;;;;;5057006;28;19944;-78
2022/03/29 03:38:54;;;;;;;;;;;7.90;82.00;;;;;;5059984;28;19978;-78
2022/03/29 03:41:19;;;;;;;;;;;7.80;82.20;;;;;;5055738;28;19951;-78
2022/03/29 03:43:44;;;;;;;;;;;7.80;82.30;;;;;;5060922;28;19962;-79
2022/03/29 03:46:10;;;;;;;;;;;7.80;82.40;;;;;;5060652;28;19913;-79
2022/03/29 03:48:36;;;;;;;;;;;7.70;82.40;;;;;;5060913;28;19988;-78
2022/03/29 03:51:01;;;;;;;;;;;7.70;82.50;;;;;;5060729;28;20389;-79
2022/03/29 03:53:27;;;;;;;;;;;7.70;82.50;;;;;;5062062;28;19913;-79
2022/03/29 03:55:53;;;;;;;;;;;7.70;82.60;;;;;;5060704;28;19920;-79
2022/03/29 03:58:18;;;;;;;;;;;7.80;82.10;;;;;;5062824;28;20071;-79
2022/03/29 04:00:44;;;;;;;;;;;7.80;82.50;;;;;;5061759;28;20297;-80
2022/03/29 04:03:09;;;;;;;;;;;7.80;82.30;;;;;;5063168;28;19913;-79
2022/03/29 04:05:35;;;;;;;;;;;7.70;82.60;;;;;;5062403;28;19930;-80
2022/03/29 04:08:01;;;;;;;;;;;7.60;82.80;;;;;;5061628;28;19987;-79
2022/03/29 04:10:26;;;;;;;;;;;7.60;82.90;;;;;;5063153;28;19923;-79
2022/03/29 04:12:52;;;;;;;;;;;7.60;82.90;;;;;;5062886;28;19935;-79
2022/03/29 04:15:17;;;;;;;;;;;7.60;82.80;;;;;;5060477;28;19959;-79
2022/03/29 04:17:43;;;;;;;;;;;7.60;82.80;;;;;;5056978;28;19928;-79
2022/03/29 04:20:09;;;;;;;;;;;7.70;82.50;;;;;;5054892;28;20051;-79
2022/03/29 04:22:34;;;;;;;;;;;7.70;82.70;;;;;;5056593;28;19921;-79
2022/03/29 04:25:00;;;;;;;;;;;7.70;82.70;;;;;;5055721;28;20474;-79
2022/03/29 04:27:25;;;;;;;;;;;7.60;82.60;;;;;;5057421;28;19971;-79
2022/03/29 04:29:51;;;;;;;;;;;7.60;82.80;;;;;;5052134;28;20454;-80
2022/03/29 04:32:16;;;;;;;;;;;7.60;82.90;;;;;;5059221;28;19972;-79
2022/03/29 04:34:44;;;;;;;;;;;7.60;82.80;;;;;;5057615;28;19988;-79
2022/03/29 04:37:10;;;;;;;;;;;7.60;82.80;;;;;;5055603;28;19960;-79
2022/03/29 04:39:38;;;;;;;;;;;7.50;83.10;;;;;;5057595;28;19917;-79
2022/03/29 04:42:04;;;;;;;;;;;7.40;83.30;;;;;;5055359;28;19917;-78
2022/03/29 04:44:29;;;;;;;;;;;7.40;83.50;;;;;;5055920;28;20335;-78
2022/03/29 04:46:55;;;;;;;;;;;7.50;83.40;;;;;;5060563;28;19928;-79
2022/03/29 04:49:20;;;;;;;;;;;7.50;83.10;;;;;;5057413;28;19913;-78
2022/03/29 04:51:46;;;;;;;;;;;7.40;83.20;;;;;;5053838;28;20007;-80
2022/03/29 04:54:12;;;;;;;;;;;7.50;83.30;;;;;;5053278;28;19916;-80
2022/03/29 04:56:37;;;;;;;;;;;7.40;83.30;;;;;;5050493;28;19913;-79
2022/03/29 04:59:03;;;;;;;;;;;7.40;83.40;;;;;;5055517;28;19913;-81
2022/03/29 05:01:28;;;;;;;;;;;7.40;83.50;;;;;;5055748;28;20294;-82
2022/03/29 05:03:54;;;;;;;;;;;7.40;83.40;;;;;;5057211;28;19971;-80
2022/03/29 05:06:19;;;;;;;;;;;7.40;83.50;;;;;;5053254;28;20304;-80
2022/03/29 05:08:45;;;;;;;;;;;7.50;83.20;;;;;;5052214;28;19917;-81
2022/03/29 05:11:11;;;;;;;;;;;7.40;83.20;;;;;;5048158;28;19912;-80
2022/03/29 05:13:36;;;;;;;;;;;7.30;83.60;;;;;;5049865;28;19913;-82
2022/03/29 05:16:02;;;;;;;;;;;7.40;83.60;;;;;;5051916;28;19908;-80
2022/03/29 05:18:27;;;;;;;;;;;7.40;83.30;;;;;;5050699;28;19921;-81
2022/03/29 05:20:53;;;;;;;;;;;7.30;83.50;;;;;;5051013;28;19936;-81
2022/03/29 05:23:19;;;;;;;;;;;7.30;83.30;;;;;;5052319;28;19913;-80
2022/03/29 05:25:44;;;;;;;;;;;7.30;83.30;;;;;;5048589;28;19923;-79
2022/03/29 05:28:10;;;;;;;;;;;7.40;83.40;;;;;;5048449;28;20280;-84
2022/03/29 05:30:35;;;;;;;;;;;7.30;83.60;;;;;;5049848;28;19919;-83
2022/03/29 05:33:01;;;;;;;;;;;7.30;83.30;;;;;;5046173;28;19935;-84
2022/03/29 05:35:30;;;;;;;;;;;7.20;83.80;;;;;;5065867;28;19924;-80
2022/03/29 05:37:57;;;;;;;;;;;7.10;84.50;;;;;;5052466;28;19917;-81
2022/03/29 05:40:24;;;;;;;;;;;6.90;84.80;;;;;;5052311;28;19920;-81
2022/03/29 05:42:50;;;;;;;;;;;7.00;85.40;;;;;;5052679;28;20249;-82
2022/03/29 05:45:16;;;;;;;;;;;7.00;85.00;;;;;;5051549;28;20456;-83
2022/03/29 05:50:27;;;;;;;;;;;7.20;84.70;;;;;;5049452;28;19924;-82
2022/03/29 05:52:53;;;;;;;;;;;7.10;84.60;;;;;;5050016;28;19915;-81
2022/03/29 05:55:18;;;;;;;;;;;7.10;84.80;;;;;;5050523;28;20007;-80
2022/03/29 05:57:44;;;;;;;;;;;6.80;85.30;;;;;;5049712;28;19909;-81
2022/03/29 06:00:10;;;;;;;;;;;6.70;86.20;;;;;;5046937;28;19909;-82
2022/03/29 06:02:39;;;;;;;;;;;6.60;86.70;;;;;;5050720;28;20000;-81
2022/03/29 06:05:05;;;;;;;;;;;6.50;87.10;;;;;;5050242;28;19919;-81
2022/03/29 06:07:31;;;;;;;;;;;6.50;87.50;;;;;;5051636;28;19909;-82
2022/03/29 06:09:56;;;;;;;;;;;6.50;87.40;;;;;;5049643;28;19931;-82
2022/03/29 06:12:22;;;;;;;;;;;6.50;87.40;;;;;;5049632;28;19936;-81
2022/03/29 06:14:47;;;;;;;;;;;6.60;87.40;;;;;;5049131;28;19928;-81
2022/03/29 06:17:13;;;;;;;;;;;6.60;87.40;;;;;;5049972;28;20431;-81
2022/03/29 06:19:38;;;;;;;;;;;6.60;87.40;;;;;;5048945;28;19916;-82
2022/03/29 06:22:04;;;;;;;;;;;6.60;87.40;;;;;;5050494;28;20305;-81
2022/03/29 06:24:31;;;;;;;;;;;6.80;87.20;;;;;;5050471;28;19913;-81
2022/03/29 06:26:57;;;;;;;;;;;6.80;87.00;;;;;;5050919;28;20347;-83
2022/03/29 06:29:23;;;;;;;;;;;6.80;87.10;;;;;;5052325;28;19927;-82
2022/03/29 06:31:48;;;;;;;;;;;6.80;87.20;;;;;;5050968;28;19928;-81
2022/03/29 06:34:14;;;;;;;;;;;7.00;86.40;;;;;;5052568;28;19921;-77
2022/03/29 06:36:41;;;;;;;;;;;7.10;86.20;;;;;;5051667;28;19913;-78
2022/03/29 06:39:08;;;;;;;;;;;7.00;85.90;;;;;;5051153;28;20396;-77
2022/03/29 06:41:34;;;;;;;;;;;6.70;86.60;;;;;;5052162;28;19920;-78
2022/03/29 06:44:00;;;;;;;;;;;6.80;87.10;;;;;;5052685;28;19924;-78
2022/03/29 06:46:26;;;;;;;;;;;6.80;87.20;;;;;;5050941;28;19912;-78
2022/03/29 06:48:51;;;;;;;;;;;6.80;86.80;;;;;;5051819;28;19955;-77
2022/03/29 06:51:18;;;;;;;;;;;6.70;87.10;;;;;;5050016;28;19970;-78
2022/03/29 06:53:44;;;;;;;;;;;6.90;87.10;;;;;;5050265;28;20015;-78
2022/03/29 06:56:09;;;;;;;;;;;6.90;86.60;;;;;;5049944;28;19999;-78
2022/03/29 06:58:35;;;;;;;;;;;6.70;86.90;;;;;;5051717;28;19917;-79
2022/03/29 07:01:00;;;;;;;;;;;6.90;86.90;;;;;;5042947;28;19967;-78
2022/03/29 07:03:27;;;;;;;;;;;6.90;86.70;;;;;;5049958;28;20055;-83
2022/03/29 07:05:53;;;;;;;;;;;6.80;87.00;;;;;;5050768;28;19917;-78
2022/03/29 07:08:20;;;;;;;;;;;6.80;86.90;;;;;;5050805;28;19924;-78
2022/03/29 07:13:30;;;;;;;;;;;7.00;86.70;;;;;;5051389;28;19920;-78
2022/03/29 07:15:56;;;;;;;;;;;7.40;85.60;;;;;;5051543;28;19909;-78
2022/03/29 07:18:22;;;;;;;;;;;7.30;85.30;;;;;;5051326;28;20035;-78
2022/03/29 07:20:47;;;;;;;;;;;7.30;85.40;;;;;;5050567;28;19912;-78
2022/03/29 07:23:12;;;;;;;;;;;7.20;85.90;;;;;;5052190;28;20377;-78
2022/03/29 07:25:38;;;;;;;;;;;7.10;86.50;;;;;;5047422;28;20015;-79
2022/03/29 07:28:04;;;;;;;;;;;7.00;86.70;;;;;;5049936;28;20369;-79
2022/03/29 07:30:31;;;;;;;;;;;6.90;86.90;;;;;;5052471;28;19944;-79
2022/03/29 07:32:57;;;;;;;;;;;6.90;87.00;;;;;;5052001;28;20062;-79
2022/03/29 07:35:24;;;;;;;;;;;7.00;87.40;;;;;;5048275;28;19912;-78
2022/03/29 07:37:50;;;;;;;;;;;7.00;87.30;;;;;;5049347;28;19921;-79
2022/03/29 07:40:17;;;;;;;;;;;7.10;86.50;;;;;;5039454;28;19921;-78
2022/03/29 07:42:43;;;;;;;;;;;7.10;86.80;;;;;;5049729;28;19917;-78
2022/03/29 07:45:11;;;;;;;;;;;7.20;86.70;;;;;;5049972;28;20534;-77
2022/03/29 07:47:37;;;;;;;;;;;7.20;86.10;;;;;;5049221;28;19909;-78
2022/03/29 07:50:06;;;;;;;;;;;7.10;86.60;;;;;;5044944;28;20297;-78
2022/03/29 07:52:35;;;;;;;;;;;7.00;86.90;;;;;;5043266;28;20003;-78
2022/03/29 07:55:02;;;;;;;;;;;7.20;87.00;;;;;;5049254;28;20443;-78
2022/03/29 07:57:28;;;;;;;;;;;7.20;86.50;;;;;;5048549;28;19916;-78
2022/03/29 07:59:53;;;;;;;;;;;7.30;86.60;;;;;;5050662;28;19914;-78
2022/03/29 08:02:18;;;;;;;;;;;7.40;86.10;;;;;;5042827;28;19921;-78
2022/03/29 08:04:44;;;;;;;;;;;7.30;86.20;;;;;;5044230;28;19925;-78
2022/03/29 08:07:09;;;;;;;;;;;7.30;86.80;;;;;;5047419;28;19925;-78
2022/03/29 08:09:35;;;;;;;;;;;7.40;86.60;;;;;;5046387;28;19977;-77
2022/03/29 08:12:00;;;;;;;;;;;7.50;86.30;;;;;;5047747;28;19920;-78
2022/03/29 08:14:26;;;;;;;;;;;7.60;85.80;;;;;;5051032;28;19974;-78
2022/03/29 08:16:53;;;;;;;;;;;7.50;85.80;;;;;;5047455;28;19939;-78
2022/03/29 08:19:19;;;;;;;;;;;7.40;85.90;;;;;;5045081;28;20411;-77
2022/03/29 08:21:48;;;;;;;;;;;7.30;86.10;;;;;;5046908;28;19924;-78
2022/03/29 08:24:14;;;;;;;;;;;7.40;86.40;;;;;;5048484;28;19924;-78
2022/03/29 08:26:39;;;;;;;;;;;7.40;86.30;;;;;;5049947;28;19913;-78
2022/03/29 08:29:05;;;;;;;;;;;7.40;86.30;;;;;;5049579;28;19958;-78
2022/03/29 08:31:31;;;;;;;;;;;7.40;86.20;;;;;;5048580;28;19912;-78
2022/03/29 08:33:57;;;;;;;;;;;7.40;86.20;;;;;;5046975;28;19920;-77
2022/03/29 08:36:22;;;;;;;;;;;7.60;86.20;;;;;;5042780;28;19917;-78
2022/03/29 08:38:48;;;;;;;;;;;7.60;86.00;;;;;;5048350;28;19916;-78
2022/03/29 08:41:13;;;;;;;;;;;7.60;85.80;;;;;;5049245;28;19960;-78
2022/03/29 08:43:39;;;;;;;;;;;7.60;86.10;;;;;;5049935;28;19935;-78
2022/03/29 08:46:05;;;;;;;;;;;7.60;86.10;;;;;;5049963;28;20005;-78
2022/03/29 08:48:30;;;;;;;;;;;7.80;85.60;;;;;;5048563;28;20349;-83
2022/03/29 08:50:57;;;;;;;;;;;7.80;85.00;;;;;;5051298;28;19982;-80
2022/03/29 08:53:23;;;;;;;;;;;7.80;85.40;;;;;;5051994;28;19925;-79
2022/03/29 08:55:49;;;;;;;;;;;7.80;85.20;;;;;;5049142;28;20399;-79
2022/03/29 08:58:18;;;;;;;;;;;8.10;84.30;;;;;;5052377;28;20019;-79
2022/03/29 09:00:45;;;;;;;;;;;8.10;83.70;;;;;;5051119;28;19973;-79
2022/03/29 09:03:11;;;;;;;;;;;8.20;83.20;;;;;;5052831;28;19967;-80
2022/03/29 09:05:37;;;;;;;;;;;8.20;82.80;;;;;;5051964;28;19921;-79
2022/03/29 09:08:08;;;;;;;;;;;8.20;83.00;;;;;;5052201;28;19925;-80
2022/03/29 09:10:42;;;;;;;;;;;8.20;83.40;;;;;;5047976;28;19921;-80
2022/03/29 09:13:14;;;;;;;;;;;8.20;83.40;;;;;;5047455;28;19920;-80
2022/03/29 09:15:40;;;;;;;;;;;8.30;82.50;;;;;;5056402;28;20262;-86
2022/03/29 09:18:09;;;;;;;;;;;8.20;82.80;;;;;;5054408;28;20122;-86
2022/03/29 09:20:35;;;;;;;;;;;8.10;83.60;;;;;;5055059;28;19912;-83
2022/03/29 09:23:00;;;;;;;;;;;8.20;83.30;;;;;;5052745;28;20516;-83
2022/03/29 09:25:36;;;;;;;;;;;8.30;83.10;;;;;;5051860;28;20003;-83
2022/03/29 09:28:10;;;;;;;;;;;8.50;82.50;;;;;;5048582;28;19927;-82
2022/03/29 09:30:40;;;;;;;;;;;8.30;83.10;;;;;;5049033;28;20403;-82
2022/03/29 09:33:07;;;;;;;;;;;8.20;83.70;;;;;;5049696;28;19912;-82
2022/03/29 09:35:51;;;;;;;;;;;8.40;82.70;;;;;;5044641;28;20365;-82
2022/03/29 09:38:21;;;;;;;;;;;8.20;83.00;;;;;;5049502;28;19991;-82
2022/03/29 09:40:46;;;;;;;;;;;8.50;82.80;;;;;;5048555;28;19992;-82
2022/03/29 09:43:13;;;;;;;;;;;8.30;82.80;;;;;;5047927;28;19971;-81
2022/03/29 09:45:40;;;;;;;;;;;8.40;82.30;;;;;;5048733;28;20415;-82
2022/03/29 09:48:24;;;;;;;;;;;8.50;82.20;;;;;;5046383;28;20362;-82
2022/03/29 09:50:54;;;;;;;;;;;8.50;82.40;;;;;;5045848;28;20374;-81
2022/03/29 09:53:32;;;;;;;;;;;8.20;83.40;;;;;;5053060;28;19978;-82
2022/03/29 09:55:59;;;;;;;;;;;8.30;83.10;;;;;;5051992;28;19913;-84
2022/03/29 09:58:24;;;;;;;;;;;8.50;81.90;;;;;;5055955;28;19923;-83
2022/03/29 10:00:50;;;;;;;;;;;8.60;82.20;;;;;;5060456;28;19909;-85
2022/03/29 10:03:17;;;;;;;;;;;8.80;81.20;;;;;;5059154;28;19948;-84
2022/03/29 10:05:44;;;;;;;;;;;8.80;81.40;;;;;;5061634;28;19920;-85
2022/03/29 10:11:02;;;;;;;;;;;8.80;80.50;;;;;;5060065;28;20403;-85
2022/03/29 10:13:28;;;;;;;;;;;8.50;82.40;;;;;;5062325;28;20340;-86
2022/03/29 10:15:55;;;;;;;;;;;8.30;83.00;;;;;;5060067;28;19916;-85
2022/03/29 10:18:21;;;;;;;;;;;8.30;83.20;;;;;;5060471;28;19912;-85
2022/03/29 10:20:47;;;;;;;;;;;8.70;81.70;;;;;;5059367;28;19913;-82
2022/03/29 10:23:18;;;;;;;;;;;9.00;81.20;;;;;;5060198;28;19913;-83
2022/03/29 10:25:44;;;;;;;;;;;8.90;80.70;;;;;;5057114;28;19968;-82
2022/03/29 10:28:10;;;;;;;;;;;8.60;81.60;;;;;;5057198;28;19978;-82
2022/03/29 10:30:35;;;;;;;;;;;8.50;82.40;;;;;;5056751;28;19912;-82
2022/03/29 10:33:20;;;;;;;;;;;8.80;82.10;;;;;;5062854;28;19928;-82
2022/03/29 10:36:02;;;;;;;;;;;9.00;80.80;;;;;;5041671;28;19996;-82
2022/03/29 10:38:46;;;;;;;;;;;8.90;80.90;;;;;;5057276;28;19920;-82
2022/03/29 10:41:28;;;;;;;;;;;9.30;79.50;;;;;;5066509;28;19912;-82
2022/03/29 10:44:08;;;;;;;;;;;9.10;79.70;;;;;;5063064;28;19912;-82
2022/03/29 10:46:38;;;;;;;;;;;8.90;80.20;;;;;;5061024;28;19917;-82
2022/03/29 10:49:22;;;;;;;;;;;9.00;80.20;;;;;;5054253;28;19917;-82
2022/03/29 10:51:49;;;;;;;;;;;9.00;80.10;;;;;;5059914;28;19967;-82
2022/03/29 10:54:31;;;;;;;;;;;9.00;80.30;;;;;;5069350;28;19912;-83
2022/03/29 10:56:57;;;;;;;;;;;9.20;80.30;;;;;;5065750;28;19912;-81
2022/03/29 10:59:23;;;;;;;;;;;9.50;79.10;;;;;;5050786;28;19999;-82
2022/03/29 11:02:07;;;;;;;;;;;9.30;78.70;;;;;;5052555;28;19960;-82
2022/03/29 11:04:33;;;;;;;;;;;9.30;79.20;;;;;;5053114;28;19988;-81
2022/03/29 11:07:05;;;;;;;;;;;9.40;79.60;;;;;;5055258;28;19987;-81
2022/03/29 11:09:31;;;;;;;;;;;9.50;79.50;;;;;;5054822;28;19913;-81
2022/03/29 11:11:59;;;;;;;;;;;9.60;78.60;;;;;;5058358;28;19920;-81
2022/03/29 11:14:33;;;;;;;;;;;9.80;77.70;;;;;;5061492;28;20316;-84
2022/03/29 11:17:08;;;;;;;;;;;9.60;78.60;;;;;;5060029;28;19913;-83
2022/03/29 11:19:38;;;;;;;;;;;9.70;78.60;;;;;;5059403;28;19986;-83
2022/03/29 11:22:23;;;;;;;;;;;9.80;76.90;;;;;;5061671;28;19935;-81
2022/03/29 11:24:49;;;;;;;;;;;9.70;76.80;;;;;;5055059;28;20035;-81
2022/03/29 11:27:26;;;;;;;;;;;9.70;77.10;;;;;;5053473;28;20444;-81
2022/03/29 11:29:52;;;;;;;;;;;9.70;76.80;;;;;;5056291;28;19977;-81
2022/03/29 11:32:18;;;;;;;;;;;9.80;76.70;;;;;;5054372;28;19971;-80
2022/03/29 11:34:44;;;;;;;;;;;9.90;76.50;;;;;;5052269;28;19921;-81
2022/03/29 11:37:28;;;;;;;;;;;10.00;76.20;;;;;;5051608;28;19975;-81
2022/03/29 11:39:54;;;;;;;;;;;10.00;75.80;;;;;;5054109;28;20014;-81
2022/03/29 11:42:20;;;;;;;;;;;10.10;75.60;;;;;;5052911;28;19921;-81
2022/03/29 11:44:49;;;;;;;;;;;10.20;75.10;;;;;;5053686;28;19917;-81
2022/03/29 11:47:14;;;;;;;;;;;10.20;74.70;;;;;;5051206;28;20004;-81
2022/03/29 11:49:41;;;;;;;;;;;10.20;75.20;;;;;;5052066;28;19952;-81
2022/03/29 11:52:08;;;;;;;;;;;10.40;75.40;;;;;;5050765;28;19947;-81
2022/03/29 11:54:44;;;;;;;;;;;10.50;74.50;;;;;;5053981;28;20365;-82
2022/03/29 11:57:13;;;;;;;;;;;10.40;74.50;;;;;;5049316;28;20392;-82
2022/03/29 11:59:38;;;;;;;;;;;10.20;74.20;;;;;;5051553;28;19920;-81
2022/03/29 12:02:05;;;;;;;;;;;10.20;74.30;;;;;;5050572;28;19913;-81
2022/03/29 12:04:32;;;;;;;;;;;10.20;73.80;;;;;;5052398;28;19913;-82
2022/03/29 12:06:57;;;;;;;;;;;10.40;73.20;;;;;;5052164;28;19982;-82
2022/03/29 12:09:23;;;;;;;;;;;10.40;72.70;;;;;;5053268;28;20365;-81
2022/03/29 12:11:53;;;;;;;;;;;10.30;73.10;;;;;;5049543;28;19921;-80
2022/03/29 12:14:20;;;;;;;;;;;10.50;73.40;;;;;;5053232;28;19977;-82
2022/03/29 12:16:49;;;;;;;;;;;10.50;72.90;;;;;;5050964;28;19974;-81
2022/03/29 12:19:19;;;;;;;;;;;10.50;73.00;;;;;;5048105;28;19992;-82
2022/03/29 12:21:46;;;;;;;;;;;10.10;74.30;;;;;;5048261;28;19917;-82
2022/03/29 12:24:12;;;;;;;;;;;10.10;74.20;;;;;;5048477;28;20242;-82
2022/03/29 12:27:01;;;;;;;;;;;10.30;73.00;;;;;;5047548;28;19964;-83
2022/03/29 12:29:27;;;;;;;;;;;10.60;71.50;;;;;;5050356;28;19916;-81
2022/03/29 12:31:53;;;;;;;;;;;10.30;72.40;;;;;;5050215;28;19998;-82
2022/03/29 12:34:20;;;;;;;;;;;10.60;72.20;;;;;;5049452;28;19913;-82
2022/03/29 12:36:50;;;;;;;;;;;10.50;73.20;;;;;;5050381;28;19912;-83
2022/03/29 12:39:15;;;;;;;;;;;10.40;72.80;;;;;;5044993;28;19925;-82
2022/03/29 12:41:44;;;;;;;;;;;10.30;72.20;;;;;;5048695;28;19913;-82
2022/03/29 12:44:11;;;;;;;;;;;10.30;73.10;;;;;;5049831;28;19942;-82
2022/03/29 12:46:37;;;;;;;;;;;10.40;73.00;;;;;;5050877;28;19908;-84
2022/03/29 12:49:03;;;;;;;;;;;10.40;73.40;;;;;;5051736;28;19940;-84
2022/03/29 12:51:30;;;;;;;;;;;10.60;71.60;;;;;;5051475;28;20369;-85
2022/03/29 12:54:01;;;;;;;;;;;10.90;71.10;;;;;;5057982;28;19908;-84
2022/03/29 12:56:31;;;;;;;;;;;11.00;69.60;;;;;;5058877;28;19936;-84
2022/03/29 12:58:58;;;;;;;;;;;11.00;70.40;;;;;;5052422;28;20007;-85
2022/03/29 13:01:25;;;;;;;;;;;10.70;71.80;;;;;;5054135;28;19916;-85
2022/03/29 13:03:50;;;;;;;;;;;10.70;71.60;;;;;;5054244;28;20448;-84
2022/03/29 13:06:19;;;;;;;;;;;10.80;70.50;;;;;;5065313;28;20001;-85
2022/03/29 13:08:47;;;;;;;;;;;10.90;70.50;;;;;;5090522;28;19931;-85
2022/03/29 13:11:18;;;;;;;;;;;11.00;70.30;;;;;;5075894;28;19970;-84
2022/03/29 13:13:46;;;;;;;;;;;11.00;70.00;;;;;;5061217;28;20330;-85
2022/03/29 13:16:18;;;;;;;;;;;11.10;70.80;;;;;;5058038;28;19913;-85
2022/03/29 13:18:44;;;;;;;;;;;11.10;69.60;;;;;;5056686;28;20251;-86
2022/03/29 13:21:14;;;;;;;;;;;11.10;69.40;;;;;;5057331;28;19920;-85
2022/03/29 13:23:41;;;;;;;;;;;10.90;69.60;;;;;;5057570;28;19980;-85
2022/03/29 13:26:13;;;;;;;;;;;10.70;70.20;;;;;;5055599;28;19917;-85
2022/03/29 13:28:42;;;;;;;;;;;10.80;70.80;;;;;;5059057;28;20289;-84
2022/03/29 13:31:14;;;;;;;;;;;11.00;68.30;;;;;;5061334;28;20466;-85
2022/03/29 13:33:43;;;;;;;;;;;11.10;67.80;;;;;;5065301;28;19913;-86
2022/03/29 13:36:10;;;;;;;;;;;11.30;68.90;;;;;;5057210;28;19996;-84
2022/03/29 13:38:36;;;;;;;;;;;11.20;68.40;;;;;;5063262;28;19928;-85
2022/03/29 13:41:02;;;;;;;;;;;11.10;68.60;;;;;;5057536;28;19917;-85
2022/03/29 13:43:28;;;;;;;;;;;11.50;67.50;;;;;;5055675;28;19948;-86
2022/03/29 13:45:54;;;;;;;;;;;11.60;67.50;;;;;;5051313;28;20336;-83
2022/03/29 13:48:19;;;;;;;;;;;11.50;67.60;;;;;;5056705;28;19917;-83
2022/03/29 13:50:45;;;;;;;;;;;11.60;67.80;;;;;;5045403;28;20334;-83
2022/03/29 13:53:10;;;;;;;;;;;11.80;67.10;;;;;;5058171;28;20430;-83
2022/03/29 13:55:36;;;;;;;;;;;11.90;65.40;;;;;;5056276;28;19909;-83
2022/03/29 13:58:04;;;;;;;;;;;11.80;64.90;;;;;;5053875;28;20305;-83
2022/03/29 14:00:31;;;;;;;;;;;11.90;64.90;;;;;;5053497;28;19920;-85
2022/03/29 14:02:57;;;;;;;;;;;11.90;65.00;;;;;;5054754;28;19912;-86
2022/03/29 14:05:22;;;;;;;;;;;11.80;65.20;;;;;;5048086;28;20027;-84
2022/03/29 14:07:48;;;;;;;;;;;12.10;64.40;;;;;;5053464;28;20004;-84
2022/03/29 14:10:14;;;;;;;;;;;12.10;63.70;;;;;;5051043;28;20304;-84
2022/03/29 14:12:40;;;;;;;;;;;12.20;63.50;;;;;;5058438;28;19909;-85
2022/03/29 14:15:06;;;;;;;;;;;12.40;63.30;;;;;;5056345;28;19908;-84
2022/03/29 14:17:31;;;;;;;;;;;12.60;61.90;;;;;;5055389;28;19936;-83
2022/03/29 14:19:57;;;;;;;;;;;12.50;62.10;;;;;;5051949;28;19920;-86
2022/03/29 14:22:22;;;;;;;;;;;12.40;62.20;;;;;;5062554;28;19972;-86
2022/03/29 14:24:49;;;;;;;;;;;12.50;61.80;;;;;;5073034;28;19924;-90
2022/03/29 14:27:15;;;;;;;;;;;12.10;63.70;;;;;;5074084;28;19916;-89
2022/03/29 14:29:40;;;;;;;;;;;12.00;63.70;;;;;;5074201;28;19905;-84
2022/03/29 14:32:09;;;;;;;;;;;12.10;63.30;;;;;;5071988;28;19928;-85
2022/03/29 14:34:36;;;;;;;;;;;12.10;63.00;;;;;;5073654;28;19970;-85